Time;durP1;ratioP1;P1;durP2;ratioP2;P2;SDS_P1;SDS_P2;PMS_P1;PMS_P2;Temp;Humidity;BMP_temperature;BMP_pressure;BME280_temperature;BME280_humidity;BME280_pressure;Samples;Min_cycle;Max_cycle;Signal;HPM_P1;HPM_P2
2022/08/30 00:03:11;;;;;;;;;;;24.30;60.50;;;;;;4999806;28;20097;-16
2022/08/30 00:05:38;;;;;;;1.00;0.57;;;24.30;60.50;;;;;;5000486;28;19928;-15
2022/08/30 00:08:04;;;;;;;0.80;0.80;;;24.30;60.50;;;;;;4997943;28;20072;-13
2022/08/30 00:10:29;;;;;;;1.50;0.82;;;24.30;60.40;;;;;;4997884;28;20066;-15
2022/08/30 00:12:55;;;;;;;0.80;0.80;;;24.30;60.50;;;;;;5006157;28;20102;-14
2022/08/30 00:15:21;;;;;;;1.00;1.00;;;24.30;60.40;;;;;;4998206;28;20046;-14
2022/08/30 00:17:46;;;;;;;0.90;0.90;;;24.30;60.50;;;;;;4997144;28;20049;-14
2022/08/30 00:20:14;;;;;;;0.70;0.70;;;24.30;60.50;;;;;;5001864;28;20145;-14
2022/08/30 00:22:40;;;;;;;0.68;0.68;;;24.30;60.50;;;;;;5001436;28;20127;-14
2022/08/30 00:25:06;;;;;;;0.88;0.88;;;24.30;60.40;;;;;;4997760;28;20492;-14
2022/08/30 00:27:32;;;;;;;0.90;0.90;;;24.30;60.50;;;;;;4997653;28;20036;-15
2022/08/30 00:29:57;;;;;;;0.80;0.80;;;24.30;60.40;;;;;;4994798;28;20041;-14
2022/08/30 00:32:23;;;;;;;1.00;0.60;;;24.30;60.50;;;;;;5000909;28;20485;-15
2022/08/30 00:34:49;;;;;;;1.20;0.68;;;24.30;60.50;;;;;;5003927;28;20042;-17
2022/08/30 00:37:15;;;;;;;0.60;0.60;;;24.30;60.50;;;;;;4998276;28;20524;-14
2022/08/30 00:39:41;;;;;;;0.73;0.73;;;24.30;60.50;;;;;;5001118;28;20048;-14
2022/08/30 00:42:07;;;;;;;0.57;0.57;;;24.20;60.40;;;;;;4999537;28;20474;-14
2022/08/30 00:44:33;;;;;;;1.98;1.05;;;24.20;60.40;;;;;;4999634;28;20045;-14
2022/08/30 00:46:58;;;;;;;0.70;0.70;;;24.30;60.50;;;;;;5003672;28;20136;-14
2022/08/30 00:49:24;;;;;;;0.73;0.73;;;24.30;60.50;;;;;;4999287;28;20042;-14
2022/08/30 00:51:49;;;;;;;0.80;0.80;;;24.20;60.40;;;;;;5008985;28;20054;-14
2022/08/30 00:54:15;;;;;;;0.70;0.70;;;24.30;60.50;;;;;;4997941;28;20529;-14
2022/08/30 00:56:41;;;;;;;0.60;0.60;;;24.20;60.50;;;;;;5002776;28;20042;-20
2022/08/30 00:59:06;;;;;;;0.93;0.80;;;24.20;60.50;;;;;;4984937;28;20038;-17
2022/08/30 01:01:32;;;;;;;0.95;0.60;;;24.20;60.40;;;;;;4996839;28;20047;-15
2022/08/30 01:03:58;;;;;;;0.75;0.60;;;24.30;60.40;;;;;;5000075;28;20066;-14
2022/08/30 01:06:24;;;;;;;0.70;0.70;;;24.30;61.30;;;;;;4992521;28;20038;-14
2022/08/30 01:08:50;;;;;;;1.60;0.52;;;24.20;60.40;;;;;;4998104;28;20049;-14
2022/08/30 01:11:17;;;;;;;0.70;0.70;;;24.20;60.40;;;;;;4997439;28;20061;-14
2022/08/30 01:13:45;;;;;;;2.25;0.80;;;24.20;60.40;;;;;;4999609;28;20143;-14
2022/08/30 01:16:11;;;;;;;0.73;0.73;;;24.20;60.40;;;;;;5001299;28;20045;-14
2022/08/30 01:18:38;;;;;;;1.55;0.60;;;24.20;60.40;;;;;;4995332;28;20050;-14
2022/08/30 01:21:28;;;;;;;0.73;0.70;;;24.20;60.30;;;;;;5004174;28;20030;-16
2022/08/30 01:23:55;;;;;;;1.10;0.60;;;24.30;60.40;;;;;;4995471;28;20397;-14
2022/08/30 01:26:20;;;;;;;0.60;0.60;;;24.30;61.20;;;;;;5009255;28;20069;-14
2022/08/30 01:28:47;;;;;;;0.77;0.77;;;24.20;60.40;;;;;;5001310;28;20077;-14
2022/08/30 01:31:13;;;;;;;0.63;0.63;;;24.20;60.30;;;;;;5003528;28;20038;-15
2022/08/30 01:33:39;;;;;;;0.55;0.55;;;24.30;60.40;;;;;;5001632;28;20086;-14
2022/08/30 01:36:06;;;;;;;0.60;0.60;;;24.30;60.40;;;;;;4999253;28;20074;-14
2022/08/30 01:38:38;;;;;;;0.55;0.55;;;24.20;60.30;;;;;;5006061;28;20548;-14
2022/08/30 01:41:15;;;;;;;0.63;0.57;;;24.20;60.20;;;;;;5001989;28;20061;-15
2022/08/30 01:43:41;;;;;;;0.70;0.70;;;24.20;60.30;;;;;;4999835;28;20057;-14
2022/08/30 01:46:06;;;;;;;0.70;0.50;;;24.20;60.30;;;;;;5012337;28;20118;-14
2022/08/30 01:48:33;;;;;;;0.55;0.50;;;24.20;60.30;;;;;;5001237;28;20038;-16
2022/08/30 01:50:58;;;;;;;0.57;0.57;;;24.20;60.30;;;;;;5007309;28;20065;-13
2022/08/30 01:53:24;;;;;;;0.70;0.70;;;24.20;60.20;;;;;;5000604;28;20509;-14
2022/08/30 01:55:50;;;;;;;0.80;0.80;;;24.20;60.20;;;;;;5008076;28;20034;-16
2022/08/30 01:58:15;;;;;;;0.60;0.60;;;24.20;60.10;;;;;;5003116;28;20480;-14
2022/08/30 02:00:41;;;;;;;0.55;0.55;;;24.20;60.20;;;;;;4997537;28;20485;-17
2022/08/30 02:03:06;;;;;;;0.80;0.80;;;24.20;60.20;;;;;;4997958;28;20030;-17
2022/08/30 02:05:32;;;;;;;0.90;0.90;;;24.20;60.30;;;;;;5004300;28;20111;-14
2022/08/30 02:07:57;;;;;;;0.80;0.80;;;24.20;60.20;;;;;;4998618;28;20117;-14
2022/08/30 02:10:23;;;;;;;0.70;0.70;;;24.20;60.20;;;;;;5002675;28;20049;-22
2022/08/30 02:12:49;;;;;;;0.70;0.70;;;24.20;60.10;;;;;;4999438;28;20058;-14
2022/08/30 02:15:15;;;;;;;0.65;0.65;;;24.20;60.20;;;;;;4998640;28;20062;-14
2022/08/30 02:17:41;;;;;;;0.75;0.75;;;24.20;60.20;;;;;;5002640;28;20045;-14
2022/08/30 02:20:07;;;;;;;0.52;0.52;;;24.20;60.20;;;;;;5007125;28;20469;-14
2022/08/30 02:22:33;;;;;;;0.60;0.60;;;24.20;60.10;;;;;;5013015;28;20084;-14
2022/08/30 02:24:58;;;;;;;0.50;0.50;;;24.20;60.20;;;;;;4992540;28;20050;-22
2022/08/30 02:27:25;;;;;;;0.65;0.60;;;24.20;60.10;;;;;;5001504;28;20065;-14
2022/08/30 02:29:50;;;;;;;0.80;0.40;;;24.20;60.00;;;;;;4997785;28;20065;-19
2022/08/30 02:32:16;;;;;;;0.45;0.45;;;24.20;60.10;;;;;;5002524;28;20069;-24
2022/08/30 02:34:41;;;;;;;0.63;0.63;;;24.20;60.10;;;;;;5003503;28;20041;-15
2022/08/30 02:37:07;;;;;;;0.50;0.50;;;24.20;60.10;;;;;;5005055;28;20519;-14
2022/08/30 02:39:33;;;;;;;0.55;0.55;;;24.20;60.20;;;;;;5000709;28;20064;-15
2022/08/30 02:41:59;;;;;;;0.57;0.57;;;24.20;60.20;;;;;;4997037;28;20140;-14
2022/08/30 02:44:24;;;;;;;0.60;0.52;;;24.20;60.10;;;;;;5003267;28;20496;-14
2022/08/30 02:46:50;;;;;;;0.60;0.60;;;24.20;60.10;;;;;;5000704;28;20039;-14
2022/08/30 02:49:15;;;;;;;0.70;0.70;;;24.20;60.10;;;;;;4998173;28;20037;-14
2022/08/30 02:51:41;;;;;;;0.40;0.40;;;24.20;60.00;;;;;;5004602;28;20042;-14
2022/08/30 02:54:06;;;;;;;0.60;0.60;;;24.20;60.10;;;;;;5009293;28;20050;-14
2022/08/30 02:56:32;;;;;;;0.70;0.70;;;24.20;60.00;;;;;;4997894;28;20452;-13
2022/08/30 02:58:58;;;;;;;0.57;0.57;;;24.20;60.10;;;;;;5008096;28;20063;-14
2022/08/30 03:01:23;;;;;;;0.50;0.50;;;24.20;60.10;;;;;;5010798;28;20042;-14
2022/08/30 03:03:49;;;;;;;0.47;0.47;;;24.20;60.10;;;;;;4999783;28;20136;-15
2022/08/30 03:06:15;;;;;;;0.52;0.52;;;24.20;60.00;;;;;;5001984;28;20037;-25
2022/08/30 03:08:40;;;;;;;0.60;0.55;;;24.20;60.00;;;;;;5004442;28;20041;-16
2022/08/30 03:11:06;;;;;;;0.40;0.40;;;24.20;60.10;;;;;;5002606;28;20050;-14
2022/08/30 03:13:32;;;;;;;0.50;0.50;;;24.20;60.00;;;;;;4996884;28;20526;-24
2022/08/30 03:15:57;;;;;;;0.60;0.60;;;24.20;60.10;;;;;;5012589;28;20418;-15
2022/08/30 03:18:23;;;;;;;0.60;0.60;;;24.20;60.00;;;;;;4997536;28;20516;-14
2022/08/30 03:20:49;;;;;;;0.52;0.52;;;24.20;60.80;;;;;;5000991;28;20425;-19
2022/08/30 03:23:14;;;;;;;0.50;0.50;;;24.20;60.00;;;;;;4998823;28;20034;-15
2022/08/30 03:25:40;;;;;;;0.60;0.60;;;24.20;60.00;;;;;;4993621;28;20092;-14
2022/08/30 03:28:06;;;;;;;0.50;0.50;;;24.20;60.00;;;;;;5000718;28;20048;-14
2022/08/30 03:30:31;;;;;;;0.70;0.70;;;24.20;60.00;;;;;;4997975;28;20057;-14
2022/08/30 03:32:57;;;;;;;0.60;0.60;;;24.20;60.00;;;;;;4998614;28;20047;-15
2022/08/30 03:35:23;;;;;;;0.50;0.50;;;24.20;60.00;;;;;;5004392;28;20053;-13
2022/08/30 03:37:48;;;;;;;0.55;0.55;;;24.20;60.00;;;;;;4998801;28;20490;-14
2022/08/30 03:40:15;;;;;;;0.50;0.50;;;24.20;60.00;;;;;;4998243;28;20046;-14
2022/08/30 03:42:41;;;;;;;0.40;0.40;;;24.20;60.00;;;;;;5000402;28;20132;-14
2022/08/30 03:45:07;;;;;;;0.40;0.40;;;24.20;60.00;;;;;;4996009;28;20519;-14
2022/08/30 03:47:33;;;;;;;0.45;0.45;;;24.20;60.00;;;;;;4998987;28;20568;-14
2022/08/30 03:49:59;;;;;;;0.50;0.50;;;24.20;60.00;;;;;;4997937;28;20041;-15
2022/08/30 03:52:24;;;;;;;0.43;0.43;;;24.20;60.00;;;;;;5001452;28;20033;-14
2022/08/30 03:54:50;;;;;;;0.68;0.68;;;24.20;60.00;;;;;;4996938;28;20026;-14
2022/08/30 03:57:16;;;;;;;0.40;0.40;;;24.20;60.00;;;;;;4996706;28;20074;-14
2022/08/30 03:59:41;;;;;;;0.40;0.40;;;24.20;60.00;;;;;;4996239;28;20087;-15
2022/08/30 04:02:07;;;;;;;0.47;0.47;;;24.20;60.00;;;;;;4995972;28;20068;-14
2022/08/30 04:04:32;;;;;;;0.43;0.43;;;24.10;59.90;;;;;;5004173;28;20473;-14
2022/08/30 04:06:58;;;;;;;0.40;0.40;;;24.10;60.80;;;;;;4998156;28;30314;-15
2022/08/30 04:09:24;;;;;;;0.40;0.40;;;24.10;59.90;;;;;;4995549;28;20449;-14
2022/08/30 04:11:49;;;;;;;0.50;0.50;;;24.20;60.00;;;;;;5001659;28;20102;-14
2022/08/30 04:14:16;;;;;;;0.40;0.40;;;24.10;60.00;;;;;;5006920;28;20042;-14
2022/08/30 04:16:41;;;;;;;1.25;0.55;;;24.10;60.00;;;;;;5006483;28;20050;-14
2022/08/30 04:19:07;;;;;;;0.55;0.55;;;24.10;60.00;;;;;;4996636;28;20435;-14
2022/08/30 04:21:32;;;;;;;0.40;0.40;;;24.10;59.90;;;;;;4998469;28;20046;-14
2022/08/30 04:23:58;;;;;;;0.60;0.60;;;24.10;60.00;;;;;;5004446;28;20061;-14
2022/08/30 04:26:23;;;;;;;0.60;0.60;;;24.10;60.00;;;;;;4998037;28;20535;-16
2022/08/30 04:28:49;;;;;;;0.50;0.50;;;24.10;60.10;;;;;;4998843;28;20513;-14
2022/08/30 04:31:15;;;;;;;0.35;0.35;;;24.10;59.90;;;;;;5000937;28;20074;-15
2022/08/30 04:33:41;;;;;;;0.50;0.50;;;24.10;60.00;;;;;;4998190;28;20063;-16
2022/08/30 04:36:08;;;;;;;0.50;0.50;;;24.10;59.90;;;;;;4999434;28;20057;-14
2022/08/30 04:38:33;;;;;;;0.40;0.40;;;24.10;60.00;;;;;;4996400;28;20065;-14
2022/08/30 04:40:59;;;;;;;0.50;0.50;;;24.10;59.90;;;;;;5003669;28;20046;-13
2022/08/30 04:43:25;;;;;;;0.57;0.57;;;24.10;60.00;;;;;;5000356;28;20072;-14
2022/08/30 04:45:51;;;;;;;0.70;0.70;;;24.10;60.00;;;;;;4999439;28;20539;-14
2022/08/30 04:48:17;;;;;;;0.50;0.50;;;24.10;60.10;;;;;;5006473;28;20074;-14
2022/08/30 04:50:43;;;;;;;0.47;0.47;;;24.10;60.10;;;;;;5005033;28;20070;-15
2022/08/30 04:53:08;;;;;;;0.50;0.50;;;24.10;60.00;;;;;;5002016;28;20049;-15
2022/08/30 04:55:34;;;;;;;0.47;0.47;;;24.10;60.00;;;;;;5003146;28;20042;-14
2022/08/30 04:57:59;;;;;;;0.40;0.40;;;24.10;60.00;;;;;;5003591;28;20430;-15
2022/08/30 05:00:25;;;;;;;0.70;0.60;;;24.10;59.90;;;;;;5000111;28;20038;-14
2022/08/30 05:02:51;;;;;;;0.40;0.40;;;24.10;60.10;;;;;;5000503;28;20038;-14
2022/08/30 05:08:01;;;;;;;0.43;0.43;;;24.00;60.00;;;;;;5002536;28;20065;-25
2022/08/30 05:10:27;;;;;;;0.50;0.50;;;24.10;60.10;;;;;;5002346;28;20094;-14
2022/08/30 05:12:53;;;;;;;0.40;0.40;;;24.10;60.10;;;;;;4999188;28;20460;-16
2022/08/30 05:15:19;;;;;;;0.47;0.47;;;24.10;60.00;;;;;;4998176;28;20515;-15
2022/08/30 05:17:44;;;;;;;0.57;0.57;;;24.10;60.10;;;;;;4999765;28;20054;-16
2022/08/30 05:20:10;;;;;;;0.30;0.30;;;24.10;60.10;;;;;;5002521;28;20050;-15
2022/08/30 05:22:37;;;;;;;0.52;0.52;;;24.10;60.00;;;;;;5000687;28;20042;-15
2022/08/30 05:25:03;;;;;;;0.52;0.52;;;24.10;60.00;;;;;;4999826;28;20057;-18
2022/08/30 05:27:29;;;;;;;0.50;0.50;;;24.00;60.00;;;;;;5005093;28;20060;-14
2022/08/30 05:29:55;;;;;;;0.63;0.63;;;24.10;60.10;;;;;;5000513;28;20511;-14
2022/08/30 05:32:20;;;;;;;0.50;0.50;;;24.10;60.10;;;;;;4999007;28;20124;-15
2022/08/30 05:34:46;;;;;;;0.40;0.40;;;24.10;60.10;;;;;;4999843;28;20030;-15
2022/08/30 05:37:11;;;;;;;0.60;0.50;;;24.00;60.10;;;;;;5004537;28;20046;-14
2022/08/30 05:39:37;;;;;;;0.63;0.63;;;24.00;60.90;;;;;;5000926;28;20041;-14
2022/08/30 05:42:03;;;;;;;0.57;0.57;;;24.00;60.10;;;;;;4998811;28;20500;-14
2022/08/30 05:44:28;;;;;;;0.60;0.60;;;24.00;60.10;;;;;;5002726;28;20125;-14
2022/08/30 05:46:54;;;;;;;0.50;0.50;;;24.00;60.10;;;;;;5003205;28;20074;-13
2022/08/30 05:49:19;;;;;;;0.60;0.60;;;24.00;60.40;;;;;;4999080;28;20044;-14
2022/08/30 05:51:45;;;;;;;1.08;0.98;;;23.80;59.60;;;;;;4647299;28;10000075;-14
2022/08/30 05:54:12;;;;;;;2.00;1.20;;;23.60;59.10;;;;;;4997246;28;20054;-14
2022/08/30 05:56:38;;;;;;;3.50;1.40;;;23.50;58.60;;;;;;4998452;28;20073;-14
2022/08/30 05:59:05;;;;;;;2.67;1.77;;;23.30;58.20;;;;;;4996555;28;20398;-14
2022/08/30 06:01:37;;;;;;;3.58;1.40;;;23.20;58.00;;;;;;4997149;28;20070;-15
2022/08/30 06:04:03;;;;;;;1.48;1.38;;;23.10;57.90;;;;;;4995381;28;20057;-14
2022/08/30 06:06:30;;;;;;;2.40;1.40;;;22.90;58.10;;;;;;4994029;28;20046;-13
2022/08/30 06:08:55;;;;;;;2.53;1.60;;;22.80;58.30;;;;;;4990790;28;20548;-14
2022/08/30 06:11:22;;;;;;;1.83;1.70;;;22.90;58.10;;;;;;4994930;28;20069;-14
2022/08/30 06:13:48;;;;;;;4.40;2.05;;;22.70;58.30;;;;;;4990781;28;20134;-14
2022/08/30 06:16:14;;;;;;;1.65;1.55;;;22.60;58.70;;;;;;4990970;28;20129;-15
2022/08/30 06:18:40;;;;;;;1.83;1.70;;;22.50;58.60;;;;;;4993014;28;20295;-18
2022/08/30 06:21:06;;;;;;;1.75;1.60;;;22.60;58.60;;;;;;4993364;28;20310;-15
2022/08/30 06:23:31;;;;;;;3.78;1.80;;;22.50;58.70;;;;;;4994894;28;20050;-14
2022/08/30 06:26:06;;;;;;;1.60;1.50;;;22.40;59.00;;;;;;4999277;28;20065;-15
2022/08/30 06:28:31;;;;;;;2.45;1.60;;;22.40;59.10;;;;;;5006623;28;20059;-22
2022/08/30 06:30:57;;;;;;;3.60;1.20;;;22.30;59.20;;;;;;4993143;28;20049;-14
2022/08/30 06:33:23;;;;;;;2.95;1.55;;;22.30;59.40;;;;;;4996411;28;20065;-14
2022/08/30 06:35:48;;;;;;;1.48;1.35;;;22.20;59.40;;;;;;4996657;28;20040;-16
2022/08/30 06:38:14;;;;;;;2.45;1.83;;;22.20;59.40;;;;;;4998717;28;20056;-14
2022/08/30 06:40:39;;;;;;;1.40;1.30;;;22.10;59.80;;;;;;5000610;28;20107;-14
2022/08/30 06:43:05;;;;;;;2.50;1.30;;;22.10;59.90;;;;;;5001521;28;20042;-14
2022/08/30 06:45:32;;;;;;;1.50;1.40;;;22.20;59.80;;;;;;4998773;28;20034;-14
2022/08/30 06:47:58;;;;;;;1.45;1.20;;;22.30;59.50;;;;;;4999949;28;20129;-14
2022/08/30 06:50:24;;;;;;;1.20;1.10;;;22.40;59.30;;;;;;5004482;28;20129;-14
2022/08/30 06:52:50;;;;;;;1.60;1.50;;;22.60;59.20;;;;;;4998815;28;20438;-17
2022/08/30 06:55:16;;;;;;;1.73;1.48;;;22.60;59.00;;;;;;5003176;28;20049;-17
2022/08/30 06:57:41;;;;;;;1.63;1.23;;;22.70;58.90;;;;;;5003903;28;20397;-17
2022/08/30 07:00:08;;;;;;;1.38;1.27;;;22.70;58.90;;;;;;4999361;28;20038;-17
2022/08/30 07:02:36;;;;;;;1.70;1.48;;;22.80;59.00;;;;;;4996982;28;20054;-17
2022/08/30 07:05:01;;;;;;;1.48;1.38;;;22.80;58.90;;;;;;4999733;28;20423;-17
2022/08/30 07:07:27;;;;;;;1.73;1.23;;;22.80;58.80;;;;;;4999876;28;20052;-20
2022/08/30 07:09:54;;;;;;;2.35;1.42;;;22.80;58.70;;;;;;4998910;28;20514;-17
2022/08/30 07:12:19;;;;;;;2.28;1.02;;;22.90;58.70;;;;;;5000968;28;20132;-18
2022/08/30 07:14:45;;;;;;;1.30;1.08;;;22.90;58.60;;;;;;4997663;28;20065;-17
2022/08/30 07:19:55;;;;;;;;;;;23.00;58.50;;;;;;4996937;28;20057;-18
2022/08/30 07:22:20;;;;;;;1.30;1.20;;;23.20;58.20;;;;;;4998584;28;19910;-18
2022/08/30 07:24:46;;;;;;;2.38;1.20;;;23.50;57.70;;;;;;5001073;28;20409;-17
2022/08/30 07:27:12;;;;;;;1.90;1.20;;;23.80;57.10;;;;;;4999908;28;20518;-18
2022/08/30 07:29:37;;;;;;;1.50;1.40;;;24.00;56.50;;;;;;5002681;28;20038;-17
2022/08/30 07:32:03;;;;;;;1.23;1.00;;;23.90;56.50;;;;;;5000861;28;20049;-19
2022/08/30 07:34:28;;;;;;;0.98;0.98;;;24.10;56.10;;;;;;4997970;28;20087;-17
2022/08/30 07:36:54;;;;;;;1.45;1.35;;;24.30;56.00;;;;;;5001875;28;20417;-16
2022/08/30 07:39:19;;;;;;;2.05;1.20;;;24.30;55.70;;;;;;4998172;28;20048;-18
2022/08/30 07:41:45;;;;;;;0.80;0.80;;;24.30;55.70;;;;;;5003485;28;20107;-17
2022/08/30 07:44:11;;;;;;;0.85;0.85;;;24.10;56.20;;;;;;4997489;28;20057;-17
2022/08/30 07:46:37;;;;;;;1.00;1.00;;;23.90;56.60;;;;;;5002710;28;20512;-17
2022/08/30 07:49:02;;;;;;;1.20;1.10;;;23.90;56.80;;;;;;4993757;28;20041;-17
2022/08/30 07:51:28;;;;;;;1.17;1.17;;;23.80;57.00;;;;;;4993081;28;20054;-18
2022/08/30 07:53:54;;;;;;;1.35;1.20;;;23.70;57.30;;;;;;5000244;28;20069;-17
2022/08/30 07:56:20;;;;;;;1.00;1.00;;;23.60;57.40;;;;;;4994818;28;20054;-17
2022/08/30 07:58:46;;;;;;;1.00;0.90;;;23.60;57.80;;;;;;5001813;28;20038;-17
2022/08/30 08:01:11;;;;;;;0.90;0.90;;;23.60;57.50;;;;;;4996998;28;20050;-17
2022/08/30 08:03:39;;;;;;;1.08;0.98;;;23.60;57.60;;;;;;5000926;28;20038;-17
2022/08/30 08:06:05;;;;;;;0.93;0.90;;;23.60;57.70;;;;;;4999047;28;20535;-17
2022/08/30 08:08:30;;;;;;;1.30;1.20;;;23.60;57.80;;;;;;4998838;28;20861;-17
2022/08/30 08:10:56;;;;;;;1.58;1.15;;;23.60;57.90;;;;;;4998334;28;20542;-18
2022/08/30 08:13:22;;;;;;;1.08;1.00;;;23.60;57.90;;;;;;4998611;28;20492;-26
2022/08/30 08:15:48;;;;;;;0.95;0.95;;;23.60;58.00;;;;;;4989757;28;20180;-17
2022/08/30 08:18:13;;;;;;;1.15;0.90;;;23.60;58.00;;;;;;5000425;28;20148;-17
2022/08/30 08:20:39;;;;;;;1.05;0.95;;;23.50;58.00;;;;;;4998591;28;20042;-17
2022/08/30 08:23:05;;;;;;;1.17;1.08;;;23.50;58.00;;;;;;5000896;28;20049;-17
2022/08/30 08:25:30;;;;;;;0.90;0.90;;;23.60;58.10;;;;;;5004895;28;20046;-17
2022/08/30 08:27:56;;;;;;;0.98;0.90;;;23.50;58.20;;;;;;5000676;28;20077;-17
2022/08/30 08:30:22;;;;;;;0.90;0.90;;;23.50;58.20;;;;;;5001828;28;20113;-18
2022/08/30 08:32:48;;;;;;;1.00;1.00;;;23.50;58.30;;;;;;5002221;28;23647;-18
2022/08/30 08:35:14;;;;;;;1.02;0.95;;;23.50;59.00;;;;;;5005233;28;23377;-18
2022/08/30 08:37:40;;;;;;;1.10;0.90;;;23.50;58.30;;;;;;5001573;28;20041;-18
2022/08/30 08:40:06;;;;;;;1.10;1.00;;;23.50;58.40;;;;;;5004314;28;20042;-19
2022/08/30 08:42:50;;;;;;;1.00;0.90;;;23.50;58.50;;;;;;5002909;28;20042;-18
2022/08/30 08:45:23;;;;;;;0.90;0.90;;;23.50;58.50;;;;;;5012336;28;20492;-17
2022/08/30 08:48:18;;;;;;;1.02;1.00;;;23.50;58.50;;;;;;5004008;28;20046;-18
2022/08/30 08:53:33;;;;;;;1.73;1.30;;;23.50;58.50;;;;;;5007558;28;20535;-19
2022/08/30 08:53:36;;;;;;;0.90;0.90;;;23.50;58.60;;;;;;5001456;28;20030;-19
2022/08/30 08:56:13;;;;;;;0.93;0.93;;;23.50;58.60;;;;;;5000084;28;20133;-18
2022/08/30 08:58:44;;;;;;;0.95;0.95;;;23.50;58.60;;;;;;5000326;28;20041;-20
2022/08/30 09:01:14;;;;;;;1.23;1.15;;;23.50;58.70;;;;;;4997904;28;20037;-18
2022/08/30 09:03:40;;;;;;;1.08;0.93;;;23.50;58.70;;;;;;4999391;28;20046;-19
2022/08/30 09:06:23;;;;;;;0.80;0.80;;;23.50;58.80;;;;;;5002617;28;20046;-19
2022/08/30 09:08:49;;;;;;;0.90;0.90;;;23.50;58.80;;;;;;5002327;28;20065;-18
2022/08/30 09:11:26;;;;;;;1.05;1.00;;;23.50;58.80;;;;;;5000672;28;20069;-18
2022/08/30 09:13:53;;;;;;;0.80;0.80;;;23.50;58.90;;;;;;4984940;28;20038;-17
2022/08/30 09:16:44;;;;;;;1.10;1.00;;;23.50;58.90;;;;;;5005694;28;20137;-17
2022/08/30 09:19:09;;;;;;;1.38;0.82;;;23.50;59.00;;;;;;5001629;28;20045;-18
2022/08/30 09:21:35;;;;;;;0.60;0.60;;;23.50;58.90;;;;;;5000051;28;20407;-18
2022/08/30 09:24:03;;;;;;;0.68;0.68;;;23.50;59.00;;;;;;5001790;28;20050;-18
2022/08/30 09:26:31;;;;;;;1.20;0.75;;;23.50;59.00;;;;;;5000373;28;20075;-17
2022/08/30 09:28:58;;;;;;;0.75;0.75;;;23.50;59.10;;;;;;5001809;28;20566;-18
2022/08/30 09:31:31;;;;;;;0.80;0.80;;;23.50;59.00;;;;;;5001140;28;20134;-18
2022/08/30 09:34:08;;;;;;;1.27;1.17;;;23.50;59.00;;;;;;5017843;28;20041;-17
2022/08/30 09:36:44;;;;;;;0.73;0.73;;;23.50;59.10;;;;;;5000166;28;20044;-18
2022/08/30 09:39:26;;;;;;;0.90;0.90;;;23.50;59.10;;;;;;4999936;28;20052;-18
2022/08/30 09:41:52;;;;;;;0.90;0.90;;;23.50;59.00;;;;;;5003720;28;20041;-17
2022/08/30 09:44:29;;;;;;;1.08;1.08;;;23.50;59.10;;;;;;5000554;28;20046;-18
2022/08/30 09:46:56;;;;;;;0.70;0.70;;;23.50;59.10;;;;;;5004148;28;20042;-18
2022/08/30 09:49:39;;;;;;;0.60;0.60;;;23.50;59.10;;;;;;4999575;28;20034;-17
2022/08/30 09:52:33;;;;;;;0.85;0.85;;;23.60;59.10;;;;;;5000089;28;20071;-17
2022/08/30 09:55:13;;;;;;;0.80;0.80;;;23.60;59.20;;;;;;5000643;28;20042;-18
2022/08/30 09:58:02;;;;;;;0.60;0.60;;;23.60;59.20;;;;;;5001361;28;20080;-18
2022/08/30 10:00:30;;;;;;;0.52;0.52;;;23.50;59.20;;;;;;4997184;28;20042;-18
2022/08/30 10:03:04;;;;;;;0.75;0.75;;;23.60;59.20;;;;;;4999686;28;20081;-19
2022/08/30 10:05:44;;;;;;;0.70;0.70;;;23.60;59.20;;;;;;4999885;28;20053;-18
2022/08/30 10:08:31;;;;;;;0.70;0.70;;;23.60;59.20;;;;;;4999456;28;20045;-18
2022/08/30 10:11:03;;;;;;;0.70;0.70;;;23.60;59.20;;;;;;5017979;28;20041;-18
2022/08/30 10:13:37;;;;;;;0.95;0.95;;;23.60;59.20;;;;;;5006668;28;20092;-18
2022/08/30 10:16:26;;;;;;;;;;;23.70;59.80;;;;;;4984884;28;20046;-18
2022/08/30 10:19:17;;;;;;;0.50;0.50;;;23.70;59.10;;;;;;5060006;28;19924;-18
2022/08/30 10:22:03;;;;;;;0.95;0.68;;;23.60;59.20;;;;;;5043579;28;20040;-17
2022/08/30 10:24:52;;;;;;;0.80;0.80;;;23.70;59.30;;;;;;5064463;28;20089;-17
2022/08/30 10:27:27;;;;;;;0.82;0.82;;;23.60;59.20;;;;;;5045635;28;20842;-17
2022/08/30 10:29:58;;;;;;;0.57;0.57;;;23.70;59.30;;;;;;5063742;28;20478;-17
2022/08/30 10:32:45;;;;;;;0.75;0.73;;;23.70;59.30;;;;;;5065788;28;20079;-23
2022/08/30 10:35:17;;;;;;;0.57;0.57;;;23.60;59.20;;;;;;5049733;28;20044;-18
2022/08/30 10:37:49;;;;;;;0.60;0.60;;;23.60;59.30;;;;;;5043880;28;20056;-17
2022/08/30 10:43:08;;;;;;;0.80;0.80;;;23.60;59.20;;;;;;5060698;28;20517;-18
2022/08/30 10:45:34;;;;;;;0.60;0.60;;;23.60;59.30;;;;;;5048563;28;20052;-18
2022/08/30 10:48:16;;;;;;;0.70;0.70;;;23.70;59.40;;;;;;5045830;28;20044;-17
2022/08/30 10:50:45;;;;;;;0.60;0.60;;;23.70;59.40;;;;;;5060026;28;20052;-18
2022/08/30 10:53:15;;;;;;;0.82;0.82;;;23.70;59.30;;;;;;4988896;28;20135;-18
2022/08/30 10:55:56;;;;;;;0.65;0.65;;;23.70;59.30;;;;;;5034576;28;20053;-18
2022/08/30 10:58:22;;;;;;;0.60;0.60;;;23.80;59.30;;;;;;4997072;28;20501;-18
2022/08/30 11:00:57;;;;;;;0.60;0.60;;;23.70;59.30;;;;;;5005314;28;20046;-22
2022/08/30 11:03:25;;;;;;;0.50;0.50;;;23.70;59.40;;;;;;4998001;28;20077;-18
2022/08/30 11:06:09;;;;;;;0.80;0.80;;;23.70;59.30;;;;;;5000690;28;20046;-18
2022/08/30 11:09:02;;;;;;;0.70;0.70;;;23.70;59.30;;;;;;5002366;28;20050;-18
2022/08/30 11:11:57;;;;;;;0.95;0.95;;;23.70;59.30;;;;;;5009024;28;20488;-17
2022/08/30 11:14:22;;;;;;;0.70;0.70;;;23.80;59.30;;;;;;4996427;28;20107;-17
2022/08/30 11:16:49;;;;;;;1.10;1.00;;;23.80;59.30;;;;;;4998019;28;20504;-17
2022/08/30 11:19:33;;;;;;;0.90;0.90;;;23.80;59.30;;;;;;5003969;28;20681;-17
2022/08/30 11:22:31;;;;;;;0.98;0.95;;;23.80;59.30;;;;;;5021573;28;20050;-17
2022/08/30 11:25:08;;;;;;;0.90;0.80;;;23.80;59.40;;;;;;5004592;28;20709;-17
2022/08/30 11:27:48;;;;;;;1.30;1.20;;;23.80;59.40;;;;;;4997393;28;20564;-17
2022/08/30 11:30:27;;;;;;;1.70;1.60;;;23.80;59.60;;;;;;5007662;28;20109;-18
2022/08/30 11:33:10;;;;;;;1.75;1.65;;;23.80;59.60;;;;;;4647370;28;9999976;-18
2022/08/30 11:35:37;;;;;;;1.25;1.15;;;23.80;59.60;;;;;;4992192;28;20056;-18
2022/08/30 11:38:19;;;;;;;1.40;1.30;;;23.80;59.70;;;;;;5082462;28;20050;-17
2022/08/30 11:41:12;;;;;;;1.55;1.45;;;23.80;59.70;;;;;;4995350;28;20061;-17
2022/08/30 11:43:41;;;;;;;1.50;1.40;;;23.80;59.70;;;;;;4998419;28;20042;-17
2022/08/30 11:46:16;;;;;;;1.40;1.15;;;23.80;59.80;;;;;;4991858;28;20049;-18
2022/08/30 11:48:50;;;;;;;1.90;1.35;;;23.80;59.80;;;;;;4994820;28;20050;-18
2022/08/30 11:51:34;;;;;;;1.10;1.00;;;23.90;59.90;;;;;;5080277;28;20046;-18
2022/08/30 11:54:24;;;;;;;0.97;0.97;;;23.90;60.00;;;;;;4993534;28;20046;-18
2022/08/30 11:56:56;;;;;;;1.55;1.45;;;23.90;59.90;;;;;;4995788;28;20045;-18
2022/08/30 11:59:34;;;;;;;1.95;1.52;;;23.90;60.10;;;;;;4997699;28;20588;-17
2022/08/30 12:02:00;;;;;;;1.30;1.00;;;23.90;60.00;;;;;;4998492;28;20046;-17
2022/08/30 12:04:27;;;;;;;1.20;1.10;;;23.90;60.20;;;;;;4997813;28;20050;-18
2022/08/30 12:07:02;;;;;;;2.50;1.15;;;23.90;60.20;;;;;;5004151;28;20031;-18
2022/08/30 12:09:29;;;;;;;1.40;1.30;;;23.90;60.20;;;;;;4994865;28;20053;-18
2022/08/30 12:12:01;;;;;;;1.83;1.67;;;23.90;60.30;;;;;;4998605;28;20034;-18
2022/08/30 12:14:39;;;;;;;1.42;1.33;;;23.90;60.40;;;;;;4998977;28;20038;-17
2022/08/30 12:20:01;;;;;;;1.50;1.40;;;23.90;61.40;;;;;;5024986;28;20627;-18
2022/08/30 12:22:29;;;;;;;1.80;1.70;;;23.90;60.40;;;;;;5009820;28;20423;-17
2022/08/30 12:24:54;;;;;;;1.50;1.40;;;23.90;60.40;;;;;;4994502;28;20030;-18
2022/08/30 12:27:31;;;;;;;1.50;1.40;;;23.90;60.40;;;;;;4996045;28;20048;-18
2022/08/30 12:30:01;;;;;;;1.95;1.55;;;23.90;60.60;;;;;;5001018;28;20543;-18
2022/08/30 12:32:28;;;;;;;2.30;1.40;;;23.90;60.60;;;;;;4995480;28;20036;-18
2022/08/30 12:34:58;;;;;;;2.67;1.50;;;24.00;60.60;;;;;;5001390;28;20389;-17
2022/08/30 12:37:28;;;;;;;1.80;1.70;;;23.90;60.40;;;;;;4997873;28;20388;-18
2022/08/30 12:40:07;;;;;;;2.00;1.52;;;23.90;60.50;;;;;;4997802;28;20039;-18
2022/08/30 12:42:49;;;;;;;1.75;1.50;;;24.00;60.60;;;;;;4993106;28;20164;-18
2022/08/30 12:45:19;;;;;;;2.47;1.40;;;24.00;60.70;;;;;;4992119;28;20449;-18
2022/08/30 12:47:54;;;;;;;1.20;1.13;;;24.00;60.80;;;;;;4997207;28;20050;-19
2022/08/30 12:50:23;;;;;;;1.75;1.60;;;24.00;60.60;;;;;;4995763;28;20070;-17
2022/08/30 12:53:15;;;;;;;3.10;1.80;;;24.00;60.70;;;;;;5000510;28;20098;-14
2022/08/30 12:56:01;;;;;;;1.52;1.42;;;24.00;60.60;;;;;;4991879;28;20609;-15
2022/08/30 12:58:39;;;;;;;0.95;0.93;;;24.00;60.80;;;;;;5007089;28;20049;-14
2022/08/30 13:01:17;;;;;;;1.40;1.30;;;24.00;60.60;;;;;;4994840;28;20053;-15
2022/08/30 13:03:43;;;;;;;2.00;1.80;;;24.00;60.70;;;;;;4999443;28;20041;-14
2022/08/30 13:06:09;;;;;;;1.40;1.30;;;24.00;60.60;;;;;;4996950;28;20062;-14
2022/08/30 13:08:41;;;;;;;1.70;1.60;;;24.00;60.70;;;;;;5000972;28;20076;-15
2022/08/30 13:11:19;;;;;;;1.35;1.25;;;24.00;60.60;;;;;;4998588;28;20081;-15